EGBJ

Gloucestershire Airport

Airport
ICAO code
EGBJ
IATA Code
GLO
Summary
ICAO Region
EUR
ICAO Territory
Location

Staverton, Gloucestershire, England

Serving
Gloucester
Elevation
101 ft
Coordinates
51° 53' 37" N , 2° 9' 52" W
Metar
EGBJ 211220Z 19015KT 9999 8000E -DZ FEW010 BKN012 OVC015 12/10 Q0999

Description

Gloucestershire Airport, formerly Staverton Airport, is located at Staverton, in the Borough of Tewkesbury within Gloucestershire, England. It lies 3.5 nm west of Cheltenham, near the city of Gloucester and close to the M5 motorway.

Runways

Designator Length Width Surface Rops
18/36 800 18 ASP No/No
4/22 981 34 ASP No/No
9/27 1419 34 ASP No/No

Airport map

Aerial View

SKYbrary Partners:

Safety knowledge contributed by: